sensor_id;sensor_type;location;lat;lon;timestamp;pressure;altitude;pressure_sealevel;temperature
68939;BMP180;59064;45.294;11.816;2022-09-13T00:00:56;101257.40;;;19.20
68939;BMP180;59064;45.294;11.816;2022-09-13T00:03:23;101256.40;;;19.20
68939;BMP180;59064;45.294;11.816;2022-09-13T00:05:49;101249.60;;;19.20
68939;BMP180;59064;45.294;11.816;2022-09-13T00:08:16;101250.40;;;19.20
68939;BMP180;59064;45.294;11.816;2022-09-13T00:10:43;101250.00;;;19.20
68939;BMP180;59064;45.294;11.816;2022-09-13T00:13:11;101244.20;;;19.20
68939;BMP180;59064;45.294;11.816;2022-09-13T00:15:44;101241.40;;;19.20
68939;BMP180;59064;45.294;11.816;2022-09-13T00:18:10;101244.60;;;19.20
68939;BMP180;59064;45.294;11.816;2022-09-13T00:20:36;101232.80;;;19.20
68939;BMP180;59064;45.294;11.816;2022-09-13T00:23:02;101233.80;;;19.20
68939;BMP180;59064;45.294;11.816;2022-09-13T00:25:28;101231.20;;;19.20
68939;BMP180;59064;45.294;11.816;2022-09-13T00:27:54;101231.40;;;19.20
68939;BMP180;59064;45.294;11.816;2022-09-13T00:30:20;101230.60;;;19.24
68939;BMP180;59064;45.294;11.816;2022-09-13T00:32:45;101229.20;;;19.30
68939;BMP180;59064;45.294;11.816;2022-09-13T00:35:11;101226.20;;;19.20
68939;BMP180;59064;45.294;11.816;2022-09-13T00:37:36;101221.60;;;19.20
68939;BMP180;59064;45.294;11.816;2022-09-13T00:40:04;101216.20;;;19.20
68939;BMP180;59064;45.294;11.816;2022-09-13T00:42:31;101218.00;;;19.20
68939;BMP180;59064;45.294;11.816;2022-09-13T00:50:34;101212.40;;;19.10
68939;BMP180;59064;45.294;11.816;2022-09-13T00:55:56;101205.40;;;19.10
68939;BMP180;59064;45.294;11.816;2022-09-13T00:58:33;101203.80;;;19.10
68939;BMP180;59064;45.294;11.816;2022-09-13T01:01:01;101200.80;;;19.00
68939;BMP180;59064;45.294;11.816;2022-09-13T01:03:31;101204.00;;;19.00
68939;BMP180;59064;45.294;11.816;2022-09-13T01:06:10;101202.00;;;19.00
68939;BMP180;59064;45.294;11.816;2022-09-13T01:08:40;101201.60;;;19.00
68939;BMP180;59064;45.294;11.816;2022-09-13T01:11:35;101202.20;;;19.00
68939;BMP180;59064;45.294;11.816;2022-09-13T01:13:58;101205.80;;;19.00
68939;BMP180;59064;45.294;11.816;2022-09-13T01:16:24;101206.20;;;19.00
68939;BMP180;59064;45.294;11.816;2022-09-13T01:18:50;101207.60;;;18.92
68939;BMP180;59064;45.294;11.816;2022-09-13T01:38:26;101198.20;;;18.90
68939;BMP180;59064;45.294;11.816;2022-09-13T01:41:13;101193.60;;;18.90
68939;BMP180;59064;45.294;11.816;2022-09-13T01:47:18;101195.00;;;18.80
68939;BMP180;59064;45.294;11.816;2022-09-13T01:50:20;101194.00;;;18.80
68939;BMP180;59064;45.294;11.816;2022-09-13T01:53:01;101187.80;;;18.80
68939;BMP180;59064;45.294;11.816;2022-09-13T02:01:03;101195.00;;;18.70
68939;BMP180;59064;45.294;11.816;2022-09-13T02:04:06;101193.00;;;18.70
68939;BMP180;59064;45.294;11.816;2022-09-13T02:07:03;101192.40;;;18.70
68939;BMP180;59064;45.294;11.816;2022-09-13T02:09:37;101189.40;;;18.70
68939;BMP180;59064;45.294;11.816;2022-09-13T02:12:19;101192.00;;;18.70
68939;BMP180;59064;45.294;11.816;2022-09-13T02:14:55;101193.40;;;18.70
68939;BMP180;59064;45.294;11.816;2022-09-13T02:17:25;101187.20;;;18.70
68939;BMP180;59064;45.294;11.816;2022-09-13T02:20:06;101190.00;;;18.70
68939;BMP180;59064;45.294;11.816;2022-09-13T02:22:41;101190.20;;;18.68
68939;BMP180;59064;45.294;11.816;2022-09-13T02:25:13;101190.60;;;18.70
68939;BMP180;59064;45.294;11.816;2022-09-13T02:27:42;101188.80;;;18.62
68939;BMP180;59064;45.294;11.816;2022-09-13T02:30:11;101193.60;;;18.60
68939;BMP180;59064;45.294;11.816;2022-09-13T02:33:04;101194.80;;;18.60
68939;BMP180;59064;45.294;11.816;2022-09-13T02:35:37;101195.00;;;18.60
68939;BMP180;59064;45.294;11.816;2022-09-13T02:38:11;101188.60;;;18.68
68939;BMP180;59064;45.294;11.816;2022-09-13T02:40:45;101185.20;;;18.70
68939;BMP180;59064;45.294;11.816;2022-09-13T02:43:38;101182.40;;;18.70
68939;BMP180;59064;45.294;11.816;2022-09-13T02:46:26;101174.00;;;18.70
68939;BMP180;59064;45.294;11.816;2022-09-13T02:54:34;101172.80;;;18.70
68939;BMP180;59064;45.294;11.816;2022-09-13T02:57:09;101172.60;;;18.64
68939;BMP180;59064;45.294;11.816;2022-09-13T02:59:37;101169.20;;;18.60
68939;BMP180;59064;45.294;11.816;2022-09-13T03:02:12;101169.80;;;18.60
68939;BMP180;59064;45.294;11.816;2022-09-13T03:04:38;101166.20;;;18.60
68939;BMP180;59064;45.294;11.816;2022-09-13T03:07:12;101169.40;;;18.60
68939;BMP180;59064;45.294;11.816;2022-09-13T03:10:09;101168.80;;;18.60
68939;BMP180;59064;45.294;11.816;2022-09-13T03:27:36;101158.40;;;18.50
68939;BMP180;59064;45.294;11.816;2022-09-13T03:30:11;101160.20;;;18.50
68939;BMP180;59064;45.294;11.816;2022-09-13T03:35:40;101153.80;;;18.40
68939;BMP180;59064;45.294;11.816;2022-09-13T03:38:13;101146.40;;;18.40
68939;BMP180;59064;45.294;11.816;2022-09-13T03:40:55;101145.60;;;18.30
68939;BMP180;59064;45.294;11.816;2022-09-13T03:46:26;101134.40;;;18.20
68939;BMP180;59064;45.294;11.816;2022-09-13T03:48:58;101138.20;;;18.20
68939;BMP180;59064;45.294;11.816;2022-09-13T03:51:25;101135.40;;;18.20
68939;BMP180;59064;45.294;11.816;2022-09-13T03:53:58;101133.00;;;18.20
68939;BMP180;59064;45.294;11.816;2022-09-13T03:56:25;101129.00;;;18.20
68939;BMP180;59064;45.294;11.816;2022-09-13T03:58:51;101134.20;;;18.18
68939;BMP180;59064;45.294;11.816;2022-09-13T04:01:20;101131.80;;;18.20
68939;BMP180;59064;45.294;11.816;2022-09-13T04:03:47;101138.00;;;18.20
68939;BMP180;59064;45.294;11.816;2022-09-13T04:06:12;101132.60;;;18.10
68939;BMP180;59064;45.294;11.816;2022-09-13T04:08:38;101135.60;;;18.08
68939;BMP180;59064;45.294;11.816;2022-09-13T04:11:04;101132.60;;;18.00
68939;BMP180;59064;45.294;11.816;2022-09-13T04:13:30;101132.60;;;18.00
68939;BMP180;59064;45.294;11.816;2022-09-13T04:16:00;101130.00;;;18.00
68939;BMP180;59064;45.294;11.816;2022-09-13T04:18:28;101132.20;;;18.00
68939;BMP180;59064;45.294;11.816;2022-09-13T04:20:56;101130.40;;;18.00
68939;BMP180;59064;45.294;11.816;2022-09-13T04:23:23;101129.80;;;17.92
68939;BMP180;59064;45.294;11.816;2022-09-13T04:25:50;101130.40;;;17.90
68939;BMP180;59064;45.294;11.816;2022-09-13T04:28:17;101135.40;;;17.90
68939;BMP180;59064;45.294;11.816;2022-09-13T04:30:45;101138.80;;;17.90
68939;BMP180;59064;45.294;11.816;2022-09-13T04:33:12;101139.00;;;17.90
68939;BMP180;59064;45.294;11.816;2022-09-13T04:35:38;101140.40;;;17.82
68939;BMP180;59064;45.294;11.816;2022-09-13T04:38:06;101141.80;;;17.80
68939;BMP180;59064;45.294;11.816;2022-09-13T04:40:33;101143.00;;;17.80
68939;BMP180;59064;45.294;11.816;2022-09-13T04:43:00;101145.40;;;17.80
68939;BMP180;59064;45.294;11.816;2022-09-13T04:45:27;101149.60;;;17.80
68939;BMP180;59064;45.294;11.816;2022-09-13T04:47:56;101151.20;;;17.80
68939;BMP180;59064;45.294;11.816;2022-09-13T04:50:23;101157.60;;;17.80
68939;BMP180;59064;45.294;11.816;2022-09-13T04:52:52;101158.00;;;17.80
68939;BMP180;59064;45.294;11.816;2022-09-13T04:55:18;101158.80;;;17.80
68939;BMP180;59064;45.294;11.816;2022-09-13T04:57:44;101159.20;;;17.80
68939;BMP180;59064;45.294;11.816;2022-09-13T05:00:10;101160.20;;;17.80
68939;BMP180;59064;45.294;11.816;2022-09-13T05:02:36;101162.00;;;17.82
68939;BMP180;59064;45.294;11.816;2022-09-13T05:05:01;101167.00;;;17.80
68939;BMP180;59064;45.294;11.816;2022-09-13T05:07:27;101166.00;;;17.90
68939;BMP180;59064;45.294;11.816;2022-09-13T05:09:53;101162.00;;;17.90
68939;BMP180;59064;45.294;11.816;2022-09-13T05:12:18;101156.00;;;17.90
68939;BMP180;59064;45.294;11.816;2022-09-13T05:14:44;101155.40;;;17.94
68939;BMP180;59064;45.294;11.816;2022-09-13T05:17:10;101152.00;;;17.98
68939;BMP180;59064;45.294;11.816;2022-09-13T05:19:35;101157.20;;;18.00
68939;BMP180;59064;45.294;11.816;2022-09-13T05:22:02;101157.60;;;18.00
68939;BMP180;59064;45.294;11.816;2022-09-13T05:24:27;101156.20;;;18.00
68939;BMP180;59064;45.294;11.816;2022-09-13T05:26:53;101152.00;;;18.10
68939;BMP180;59064;45.294;11.816;2022-09-13T05:29:19;101150.40;;;18.10
68939;BMP180;59064;45.294;11.816;2022-09-13T05:31:45;101151.40;;;18.20
68939;BMP180;59064;45.294;11.816;2022-09-13T05:34:14;101151.20;;;18.30
68939;BMP180;59064;45.294;11.816;2022-09-13T05:36:42;101151.80;;;18.34
68939;BMP180;59064;45.294;11.816;2022-09-13T05:39:14;101154.80;;;18.48
68939;BMP180;59064;45.294;11.816;2022-09-13T05:41:43;101152.80;;;18.60
68939;BMP180;59064;45.294;11.816;2022-09-13T05:44:08;101151.80;;;18.70
68939;BMP180;59064;45.294;11.816;2022-09-13T05:46:34;101156.40;;;18.80
68939;BMP180;59064;45.294;11.816;2022-09-13T05:49:00;101151.00;;;18.90
68939;BMP180;59064;45.294;11.816;2022-09-13T05:51:26;101157.80;;;19.00
68939;BMP180;59064;45.294;11.816;2022-09-13T05:53:52;101153.00;;;19.20
68939;BMP180;59064;45.294;11.816;2022-09-13T05:56:25;101157.40;;;19.40
68939;BMP180;59064;45.294;11.816;2022-09-13T05:58:52;101155.20;;;19.60
68939;BMP180;59064;45.294;11.816;2022-09-13T06:01:24;101159.60;;;19.80
68939;BMP180;59064;45.294;11.816;2022-09-13T06:03:53;101160.60;;;19.90
68939;BMP180;59064;45.294;11.816;2022-09-13T06:06:21;101161.00;;;20.00
68939;BMP180;59064;45.294;11.816;2022-09-13T06:08:50;101160.60;;;20.10
68939;BMP180;59064;45.294;11.816;2022-09-13T06:11:16;101159.60;;;20.20
68939;BMP180;59064;45.294;11.816;2022-09-13T06:13:41;101163.40;;;20.38
68939;BMP180;59064;45.294;11.816;2022-09-13T06:16:12;101166.80;;;20.50
68939;BMP180;59064;45.294;11.816;2022-09-13T06:18:40;101167.60;;;20.60
68939;BMP180;59064;45.294;11.816;2022-09-13T06:21:18;101165.60;;;20.70
68939;BMP180;59064;45.294;11.816;2022-09-13T06:23:50;101168.20;;;20.80
68939;BMP180;59064;45.294;11.816;2022-09-13T06:26:19;101161.40;;;20.90
68939;BMP180;59064;45.294;11.816;2022-09-13T06:28:51;101163.00;;;21.00
68939;BMP180;59064;45.294;11.816;2022-09-13T06:31:20;101165.40;;;21.08
68939;BMP180;59064;45.294;11.816;2022-09-13T06:33:47;101165.80;;;21.10
68939;BMP180;59064;45.294;11.816;2022-09-13T06:36:16;101167.60;;;21.20
68939;BMP180;59064;45.294;11.816;2022-09-13T06:38:44;101165.40;;;21.20
68939;BMP180;59064;45.294;11.816;2022-09-13T06:41:13;101166.20;;;21.28
68939;BMP180;59064;45.294;11.816;2022-09-13T06:43:40;101168.60;;;21.30
68939;BMP180;59064;45.294;11.816;2022-09-13T06:46:12;101170.80;;;21.40
68939;BMP180;59064;45.294;11.816;2022-09-13T06:48:41;101171.60;;;21.46
68939;BMP180;59064;45.294;11.816;2022-09-13T06:51:19;101171.80;;;21.40
68939;BMP180;59064;45.294;11.816;2022-09-13T06:53:47;101175.00;;;21.40
68939;BMP180;59064;45.294;11.816;2022-09-13T06:56:19;101178.80;;;21.54
68939;BMP180;59064;45.294;11.816;2022-09-13T06:58:49;101175.00;;;21.60
68939;BMP180;59064;45.294;11.816;2022-09-13T07:01:21;101168.40;;;21.70
68939;BMP180;59064;45.294;11.816;2022-09-13T07:03:53;101161.00;;;21.70
68939;BMP180;59064;45.294;11.816;2022-09-13T07:06:26;101159.40;;;21.70
68939;BMP180;59064;45.294;11.816;2022-09-13T07:08:53;101163.40;;;21.80
68939;BMP180;59064;45.294;11.816;2022-09-13T07:11:23;101163.40;;;21.84
68939;BMP180;59064;45.294;11.816;2022-09-13T07:13:51;101164.40;;;21.90
68939;BMP180;59064;45.294;11.816;2022-09-13T07:16:19;101165.20;;;22.08
68939;BMP180;59064;45.294;11.816;2022-09-13T07:18:56;101172.60;;;22.28
68939;BMP180;59064;45.294;11.816;2022-09-13T07:21:24;101168.60;;;22.40
68939;BMP180;59064;45.294;11.816;2022-09-13T07:23:52;101171.80;;;22.50
68939;BMP180;59064;45.294;11.816;2022-09-13T07:26:19;101171.80;;;22.68
68939;BMP180;59064;45.294;11.816;2022-09-13T07:28:47;101172.40;;;22.88
68939;BMP180;59064;45.294;11.816;2022-09-13T07:31:21;101176.80;;;23.00
68939;BMP180;59064;45.294;11.816;2022-09-13T07:33:53;101170.40;;;23.10
68939;BMP180;59064;45.294;11.816;2022-09-13T07:36:19;101171.40;;;23.20
68939;BMP180;59064;45.294;11.816;2022-09-13T07:38:44;101168.00;;;23.30
68939;BMP180;59064;45.294;11.816;2022-09-13T07:41:16;101160.60;;;23.48
68939;BMP180;59064;45.294;11.816;2022-09-13T07:43:43;101161.80;;;23.60
68939;BMP180;59064;45.294;11.816;2022-09-13T07:46:12;101158.80;;;23.70
68939;BMP180;59064;45.294;11.816;2022-09-13T07:48:41;101162.00;;;23.70
68939;BMP180;59064;45.294;11.816;2022-09-13T07:51:14;101170.40;;;23.86
68939;BMP180;59064;45.294;11.816;2022-09-13T07:53:42;101172.00;;;24.00
68939;BMP180;59064;45.294;11.816;2022-09-13T07:56:12;101172.60;;;24.20
68939;BMP180;59064;45.294;11.816;2022-09-13T07:58:41;101172.80;;;24.34
68939;BMP180;59064;45.294;11.816;2022-09-13T08:01:28;101175.00;;;24.50
68939;BMP180;59064;45.294;11.816;2022-09-13T08:04:00;101178.00;;;24.74
68939;BMP180;59064;45.294;11.816;2022-09-13T08:06:30;101178.80;;;24.96
68939;BMP180;59064;45.294;11.816;2022-09-13T08:08:57;101181.00;;;25.10
68939;BMP180;59064;45.294;11.816;2022-09-13T08:11:30;101179.60;;;25.26
68939;BMP180;59064;45.294;11.816;2022-09-13T08:13:57;101180.40;;;25.40
68939;BMP180;59064;45.294;11.816;2022-09-13T08:16:24;101176.00;;;25.48
68939;BMP180;59064;45.294;11.816;2022-09-13T08:18:55;101174.40;;;25.74
68939;BMP180;59064;45.294;11.816;2022-09-13T08:21:22;101174.60;;;26.00
68939;BMP180;59064;45.294;11.816;2022-09-13T08:23:49;101174.60;;;26.26
68939;BMP180;59064;45.294;11.816;2022-09-13T08:26:16;101180.00;;;26.68
68939;BMP180;59064;45.294;11.816;2022-09-13T08:28:42;101185.20;;;27.04
68939;BMP180;59064;45.294;11.816;2022-09-13T08:31:14;101187.00;;;27.30
68939;BMP180;59064;45.294;11.816;2022-09-13T08:33:46;101190.00;;;27.60
68939;BMP180;59064;45.294;11.816;2022-09-13T08:36:15;101191.00;;;27.56
68939;BMP180;59064;45.294;11.816;2022-09-13T08:38:54;101186.20;;;27.48
68939;BMP180;59064;45.294;11.816;2022-09-13T08:44:32;101188.40;;;27.62
68939;BMP180;59064;45.294;11.816;2022-09-13T08:49:38;101199.40;;;27.78
68939;BMP180;59064;45.294;11.816;2022-09-13T08:56:19;101205.20;;;28.10
68939;BMP180;59064;45.294;11.816;2022-09-13T08:59:43;101201.60;;;28.20
68939;BMP180;59064;45.294;11.816;2022-09-13T09:02:45;101205.60;;;28.00
68939;BMP180;59064;45.294;11.816;2022-09-13T09:05:19;101203.20;;;28.20
68939;BMP180;59064;45.294;11.816;2022-09-13T09:07:48;101199.60;;;28.60
68939;BMP180;59064;45.294;11.816;2022-09-13T09:10:28;101189.60;;;28.72
68939;BMP180;59064;45.294;11.816;2022-09-13T09:13:00;101180.20;;;28.86
68939;BMP180;59064;45.294;11.816;2022-09-13T09:15:37;101183.40;;;28.66
68939;BMP180;59064;45.294;11.816;2022-09-13T09:18:13;101181.00;;;28.76
68939;BMP180;59064;45.294;11.816;2022-09-13T09:20:50;101176.60;;;29.04
68939;BMP180;59064;45.294;11.816;2022-09-13T09:25:56;101188.20;;;29.20
68939;BMP180;59064;45.294;11.816;2022-09-13T09:28:24;101191.60;;;29.00
68939;BMP180;59064;45.294;11.816;2022-09-13T09:31:22;101188.20;;;29.00
68939;BMP180;59064;45.294;11.816;2022-09-13T09:34:22;101190.80;;;29.08
68939;BMP180;59064;45.294;11.816;2022-09-13T09:37:01;101191.20;;;29.20
68939;BMP180;59064;45.294;11.816;2022-09-13T09:39:30;101194.60;;;29.20
68939;BMP180;59064;45.294;11.816;2022-09-13T09:42:09;101193.60;;;29.30
68939;BMP180;59064;45.294;11.816;2022-09-13T09:44:39;101198.20;;;29.18
68939;BMP180;59064;45.294;11.816;2022-09-13T09:49:53;101184.80;;;29.00
68939;BMP180;59064;45.294;11.816;2022-09-13T09:53:07;101176.80;;;29.40
68939;BMP180;59064;45.294;11.816;2022-09-13T09:58:10;101165.60;;;30.00
68939;BMP180;59064;45.294;11.816;2022-09-13T10:00:53;101169.00;;;30.18
68939;BMP180;59064;45.294;11.816;2022-09-13T10:03:33;101171.20;;;30.40
68939;BMP180;59064;45.294;11.816;2022-09-13T10:06:12;101170.00;;;30.40
68939;BMP180;59064;45.294;11.816;2022-09-13T10:08:41;101167.60;;;30.48
68939;BMP180;59064;45.294;11.816;2022-09-13T10:11:08;101168.40;;;30.30
68939;BMP180;59064;45.294;11.816;2022-09-13T10:13:37;101169.20;;;30.20
68939;BMP180;59064;45.294;11.816;2022-09-13T10:16:24;101166.60;;;30.14
68939;BMP180;59064;45.294;11.816;2022-09-13T10:18:50;101168.40;;;30.46
68939;BMP180;59064;45.294;11.816;2022-09-13T10:23:43;101171.60;;;30.28
68939;BMP180;59064;45.294;11.816;2022-09-13T10:26:11;101169.80;;;30.10
68939;BMP180;59064;45.294;11.816;2022-09-13T10:29:08;101171.40;;;30.20
68939;BMP180;59064;45.294;11.816;2022-09-13T10:31:38;101162.60;;;30.30
68939;BMP180;59064;45.294;11.816;2022-09-13T10:34:28;101156.20;;;30.40
68939;BMP180;59064;45.294;11.816;2022-09-13T10:42:28;101140.20;;;30.60
68939;BMP180;59064;45.294;11.816;2022-09-13T10:45:05;101143.60;;;30.54
68939;BMP180;59064;45.294;11.816;2022-09-13T10:47:47;101149.00;;;30.50
68939;BMP180;59064;45.294;11.816;2022-09-13T10:50:29;101146.20;;;30.50
68939;BMP180;59064;45.294;11.816;2022-09-13T10:52:59;101149.00;;;30.80
68939;BMP180;59064;45.294;11.816;2022-09-13T10:55:35;101152.80;;;30.54
68939;BMP180;59064;45.294;11.816;2022-09-13T11:06:44;101139.80;;;30.66
68939;BMP180;59064;45.294;11.816;2022-09-13T11:09:20;101140.60;;;30.90
68939;BMP180;59064;45.294;11.816;2022-09-13T11:12:17;101143.00;;;30.90
68939;BMP180;59064;45.294;11.816;2022-09-13T11:14:59;101141.40;;;30.90
68939;BMP180;59064;45.294;11.816;2022-09-13T11:20:48;101123.00;;;31.38
68939;BMP180;59064;45.294;11.816;2022-09-13T11:23:52;101124.80;;;31.60
68939;BMP180;59064;45.294;11.816;2022-09-13T11:26:53;101121.20;;;31.70
68939;BMP180;59064;45.294;11.816;2022-09-13T11:32:30;101129.20;;;31.80
68939;BMP180;59064;45.294;11.816;2022-09-13T11:36:23;101122.00;;;31.96
68939;BMP180;59064;45.294;11.816;2022-09-13T11:38:59;101119.40;;;32.40
68939;BMP180;59064;45.294;11.816;2022-09-13T11:56:37;101118.00;;;32.00
68939;BMP180;59064;45.294;11.816;2022-09-13T11:59:47;101115.40;;;32.20
68939;BMP180;59064;45.294;11.816;2022-09-13T12:02:35;101115.80;;;32.44
68939;BMP180;59064;45.294;11.816;2022-09-13T12:05:18;101116.80;;;32.32
68939;BMP180;59064;45.294;11.816;2022-09-13T12:07:55;101122.20;;;32.40
68939;BMP180;59064;45.294;11.816;2022-09-13T12:13:56;101118.40;;;32.86
68939;BMP180;59064;45.294;11.816;2022-09-13T12:16:31;101115.60;;;33.04
68939;BMP180;59064;45.294;11.816;2022-09-13T12:19:22;101119.40;;;33.00
68939;BMP180;59064;45.294;11.816;2022-09-13T12:21:54;101108.80;;;32.90
68939;BMP180;59064;45.294;11.816;2022-09-13T12:24:36;101099.00;;;33.06
68939;BMP180;59064;45.294;11.816;2022-09-13T12:27:25;101099.00;;;33.20
68939;BMP180;59064;45.294;11.816;2022-09-13T12:29:59;101100.20;;;33.32
68939;BMP180;59064;45.294;11.816;2022-09-13T12:32:27;101094.80;;;33.60
68939;BMP180;59064;45.294;11.816;2022-09-13T12:43:15;101088.60;;;34.18
68939;BMP180;59064;45.294;11.816;2022-09-13T12:46:14;101090.40;;;34.20
68939;BMP180;59064;45.294;11.816;2022-09-13T12:58:38;101083.20;;;34.60
68939;BMP180;59064;45.294;11.816;2022-09-13T13:01:22;101079.80;;;34.26
68939;BMP180;59064;45.294;11.816;2022-09-13T13:06:38;101073.60;;;34.60
68939;BMP180;59064;45.294;11.816;2022-09-13T13:09:43;101078.60;;;34.70
68939;BMP180;59064;45.294;11.816;2022-09-13T13:12:28;101077.00;;;34.00
68939;BMP180;59064;45.294;11.816;2022-09-13T13:14:56;101081.00;;;33.70
68939;BMP180;59064;45.294;11.816;2022-09-13T13:17:47;101074.20;;;33.84
68939;BMP180;59064;45.294;11.816;2022-09-13T13:20:46;101076.60;;;34.20
68939;BMP180;59064;45.294;11.816;2022-09-13T13:23:35;101072.40;;;34.64
68939;BMP180;59064;45.294;11.816;2022-09-13T13:49:52;101060.40;;;36.40
68939;BMP180;59064;45.294;11.816;2022-09-13T14:00:53;101056.60;;;37.52
68939;BMP180;59064;45.294;11.816;2022-09-13T14:03:41;101051.60;;;37.94
68939;BMP180;59064;45.294;11.816;2022-09-13T14:20:33;101067.80;;;38.42
68939;BMP180;59064;45.294;11.816;2022-09-13T14:23:32;101067.80;;;38.36
68939;BMP180;59064;45.294;11.816;2022-09-13T14:26:00;101064.40;;;37.58
68939;BMP180;59064;45.294;11.816;2022-09-13T14:28:27;101064.60;;;37.18
68939;BMP180;59064;45.294;11.816;2022-09-13T14:30:56;101066.80;;;36.90
68939;BMP180;59064;45.294;11.816;2022-09-13T14:33:31;101066.00;;;36.80
68939;BMP180;59064;45.294;11.816;2022-09-13T14:38:33;101059.00;;;37.00
68939;BMP180;59064;45.294;11.816;2022-09-13T14:41:14;101053.00;;;36.80
68939;BMP180;59064;45.294;11.816;2022-09-13T14:43:43;101052.60;;;36.40
68939;BMP180;59064;45.294;11.816;2022-09-13T14:46:27;101058.00;;;36.30
68939;BMP180;59064;45.294;11.816;2022-09-13T14:49:02;101062.00;;;36.10
68939;BMP180;59064;45.294;11.816;2022-09-13T14:51:33;101061.00;;;36.00
68939;BMP180;59064;45.294;11.816;2022-09-13T14:54:23;101064.80;;;36.20
68939;BMP180;59064;45.294;11.816;2022-09-13T14:56:54;101061.80;;;36.20
68939;BMP180;59064;45.294;11.816;2022-09-13T14:59:35;101058.80;;;36.20
68939;BMP180;59064;45.294;11.816;2022-09-13T15:02:18;101055.20;;;35.80
68939;BMP180;59064;45.294;11.816;2022-09-13T15:04:54;101056.40;;;35.56
68939;BMP180;59064;45.294;11.816;2022-09-13T15:07:36;101058.60;;;35.16
68939;BMP180;59064;45.294;11.816;2022-09-13T15:12:53;101047.40;;;34.80
68939;BMP180;59064;45.294;11.816;2022-09-13T15:15:41;101050.60;;;35.20
68939;BMP180;59064;45.294;11.816;2022-09-13T15:21:05;101059.20;;;34.70
68939;BMP180;59064;45.294;11.816;2022-09-13T15:23:41;101049.00;;;34.52
68939;BMP180;59064;45.294;11.816;2022-09-13T15:28:55;101044.80;;;34.82
68939;BMP180;59064;45.294;11.816;2022-09-13T15:31:30;101044.20;;;35.30
68939;BMP180;59064;45.294;11.816;2022-09-13T15:34:22;101038.40;;;35.04
68939;BMP180;59064;45.294;11.816;2022-09-13T15:37:05;101031.20;;;34.90
68939;BMP180;59064;45.294;11.816;2022-09-13T15:42:07;101032.60;;;34.04
68939;BMP180;59064;45.294;11.816;2022-09-13T15:44:33;101031.40;;;33.80
68939;BMP180;59064;45.294;11.816;2022-09-13T15:47:01;101027.20;;;33.50
68939;BMP180;59064;45.294;11.816;2022-09-13T15:49:30;101033.80;;;33.28
68939;BMP180;59064;45.294;11.816;2022-09-13T15:52:02;101034.60;;;33.10
68939;BMP180;59064;45.294;11.816;2022-09-13T15:54:36;101041.60;;;33.20
68939;BMP180;59064;45.294;11.816;2022-09-13T15:57:12;101044.80;;;33.30
68939;BMP180;59064;45.294;11.816;2022-09-13T15:59:39;101045.40;;;33.40
68939;BMP180;59064;45.294;11.816;2022-09-13T16:02:30;101041.60;;;33.40
68939;BMP180;59064;45.294;11.816;2022-09-13T16:04:57;101041.20;;;33.30
68939;BMP180;59064;45.294;11.816;2022-09-13T16:07:24;101037.20;;;33.02
68939;BMP180;59064;45.294;11.816;2022-09-13T16:09:51;101043.40;;;33.00
68939;BMP180;59064;45.294;11.816;2022-09-13T16:12:17;101042.60;;;33.10
68939;BMP180;59064;45.294;11.816;2022-09-13T16:14:44;101043.00;;;32.92
68939;BMP180;59064;45.294;11.816;2022-09-13T16:17:26;101041.40;;;32.60
68939;BMP180;59064;45.294;11.816;2022-09-13T16:19:53;101038.80;;;32.30
68939;BMP180;59064;45.294;11.816;2022-09-13T16:22:19;101042.60;;;32.10
68939;BMP180;59064;45.294;11.816;2022-09-13T16:24:46;101044.20;;;32.00
68939;BMP180;59064;45.294;11.816;2022-09-13T16:27:14;101044.40;;;32.00
68939;BMP180;59064;45.294;11.816;2022-09-13T16:29:41;101050.00;;;31.80
68939;BMP180;59064;45.294;11.816;2022-09-13T16:32:09;101050.00;;;31.34
68939;BMP180;59064;45.294;11.816;2022-09-13T16:34:34;101051.80;;;30.70
68939;BMP180;59064;45.294;11.816;2022-09-13T16:37:00;101050.40;;;30.08
68939;BMP180;59064;45.294;11.816;2022-09-13T16:39:26;101046.80;;;29.50
68939;BMP180;59064;45.294;11.816;2022-09-13T16:41:51;101051.00;;;29.04
68939;BMP180;59064;45.294;11.816;2022-09-13T16:44:17;101038.00;;;28.54
68939;BMP180;59064;45.294;11.816;2022-09-13T16:46:43;101044.80;;;28.10
68939;BMP180;59064;45.294;11.816;2022-09-13T16:49:09;101041.60;;;27.80
68939;BMP180;59064;45.294;11.816;2022-09-13T16:51:36;101042.40;;;27.50
68939;BMP180;59064;45.294;11.816;2022-09-13T16:54:03;101045.40;;;27.20
68939;BMP180;59064;45.294;11.816;2022-09-13T16:56:28;101044.20;;;27.00
68939;BMP180;59064;45.294;11.816;2022-09-13T16:58:57;101050.40;;;26.80
68939;BMP180;59064;45.294;11.816;2022-09-13T17:01:26;101048.40;;;26.70
68939;BMP180;59064;45.294;11.816;2022-09-13T17:03:52;101050.80;;;26.60
68939;BMP180;59064;45.294;11.816;2022-09-13T17:06:19;101049.20;;;26.50
68939;BMP180;59064;45.294;11.816;2022-09-13T17:09:07;101048.60;;;26.30
68939;BMP180;59064;45.294;11.816;2022-09-13T17:11:36;101042.40;;;26.18
68939;BMP180;59064;45.294;11.816;2022-09-13T17:14:06;101045.20;;;26.00
68939;BMP180;59064;45.294;11.816;2022-09-13T17:16:54;101045.20;;;25.90
68939;BMP180;59064;45.294;11.816;2022-09-13T17:19:27;101042.00;;;25.72
68939;BMP180;59064;45.294;11.816;2022-09-13T17:21:54;101038.60;;;25.60
68939;BMP180;59064;45.294;11.816;2022-09-13T17:24:23;101040.00;;;25.50
68939;BMP180;59064;45.294;11.816;2022-09-13T17:26:49;101041.60;;;25.40
68939;BMP180;59064;45.294;11.816;2022-09-13T17:29:15;101042.40;;;25.30
68939;BMP180;59064;45.294;11.816;2022-09-13T17:31:41;101044.00;;;25.20
68939;BMP180;59064;45.294;11.816;2022-09-13T17:34:09;101048.00;;;25.10
68939;BMP180;59064;45.294;11.816;2022-09-13T17:36:35;101049.40;;;25.00
68939;BMP180;59064;45.294;11.816;2022-09-13T17:39:01;101054.20;;;24.90